createdAt,value
2024-03-16T00:00:08.786Z,6.63
2024-03-16T00:02:37.049Z,6.66
2024-03-16T00:05:04.618Z,6.68
2024-03-16T00:07:31.835Z,6.69
2024-03-16T00:09:59.160Z,6.70
2024-03-16T00:12:26.432Z,6.70
2024-03-16T00:14:54.555Z,6.70
2024-03-16T00:17:21.882Z,6.70
2024-03-16T00:19:49.531Z,6.70
2024-03-16T00:22:16.765Z,6.70
2024-03-16T00:24:44.002Z,6.70
2024-03-16T00:27:11.237Z,6.70
2024-03-16T00:29:38.462Z,6.70
2024-03-16T00:32:05.988Z,6.69
2024-03-16T00:34:33.823Z,6.69
2024-03-16T00:37:05.406Z,6.71
2024-03-16T00:39:32.974Z,6.70
2024-03-16T00:42:00.236Z,6.69
2024-03-16T00:44:28.347Z,6.68
2024-03-16T00:46:55.522Z,6.68
2024-03-16T00:49:22.749Z,6.69
2024-03-16T00:51:51.124Z,6.69
2024-03-16T00:54:19.091Z,6.69
2024-03-16T00:56:47.375Z,6.69
2024-03-16T00:59:15.453Z,6.70
2024-03-16T01:01:42.618Z,6.69
2024-03-16T01:04:10.293Z,6.67
2024-03-16T01:06:38.057Z,6.67
2024-03-16T01:09:05.412Z,6.66
2024-03-16T01:11:33.221Z,6.67
2024-03-16T01:14:00.589Z,6.68
2024-03-16T01:16:27.857Z,6.68
2024-03-16T01:18:55.095Z,6.70
2024-03-16T01:21:22.925Z,6.70
2024-03-16T01:23:50.133Z,6.70
2024-03-16T01:26:17.323Z,6.70
2024-03-16T01:28:44.558Z,6.71
2024-03-16T01:31:14.439Z,6.73
2024-03-16T01:33:42.237Z,6.75
2024-03-16T01:36:09.390Z,6.77
2024-03-16T01:38:37.416Z,6.77
2024-03-16T01:41:04.655Z,6.78
2024-03-16T01:43:32.101Z,6.78
2024-03-16T01:45:59.415Z,6.80
2024-03-16T01:48:26.780Z,6.82
2024-03-16T01:50:55.300Z,6.84
2024-03-16T01:53:22.584Z,6.87
2024-03-16T01:55:49.956Z,6.86
2024-03-16T01:58:17.126Z,6.89
2024-03-16T02:00:48.019Z,6.91
2024-03-16T02:03:15.270Z,6.92
2024-03-16T02:05:42.723Z,6.94
2024-03-16T02:08:10.253Z,6.96
2024-03-16T02:10:37.436Z,6.97
2024-03-16T02:13:04.669Z,6.98
2024-03-16T02:15:33.172Z,6.99
2024-03-16T02:18:00.422Z,7.00
2024-03-16T02:20:27.890Z,7.01
2024-03-16T02:22:55.480Z,7.02
2024-03-16T02:25:23.465Z,7.03
2024-03-16T02:27:51.338Z,7.05
2024-03-16T02:30:18.591Z,7.05
2024-03-16T02:32:45.837Z,7.04
2024-03-16T02:35:13.701Z,7.04
2024-03-16T02:37:41.466Z,7.05
2024-03-16T02:40:12.771Z,7.09
2024-03-16T02:42:43.017Z,7.10
2024-03-16T02:45:11.722Z,7.12
2024-03-16T02:47:39.505Z,7.14
2024-03-16T02:50:07.874Z,7.17
2024-03-16T02:52:35.058Z,7.19
2024-03-16T02:55:02.460Z,7.20
2024-03-16T02:57:29.751Z,7.22
2024-03-16T02:59:56.996Z,7.24
2024-03-16T03:02:24.701Z,7.27
2024-03-16T03:04:51.931Z,7.30
2024-03-16T03:07:19.370Z,7.32
2024-03-16T03:09:48.036Z,7.34
2024-03-16T03:12:15.360Z,7.35
2024-03-16T03:14:42.553Z,7.36
2024-03-16T03:17:09.785Z,7.37
2024-03-16T03:19:37.136Z,7.36
2024-03-16T03:22:04.487Z,7.37
2024-03-16T03:24:32.259Z,7.36
2024-03-16T03:26:59.864Z,7.36
2024-03-16T03:29:27.142Z,7.36
2024-03-16T03:31:57.367Z,7.36
2024-03-16T03:34:25.027Z,7.35
2024-03-16T03:36:52.254Z,7.36
2024-03-16T03:39:19.585Z,7.38
2024-03-16T03:41:47.186Z,7.40
2024-03-16T03:44:21.863Z,7.41
2024-03-16T03:46:52.431Z,7.41
2024-03-16T03:49:36.203Z,7.42
2024-03-16T03:52:05.718Z,7.43
2024-03-16T03:54:35.196Z,7.44
2024-03-16T03:57:02.625Z,7.44
2024-03-16T03:59:30.448Z,7.45
2024-03-16T04:01:57.740Z,7.43
2024-03-16T04:04:25.005Z,7.41
2024-03-16T04:06:52.224Z,7.38
2024-03-16T04:09:20.084Z,7.34
2024-03-16T04:11:47.227Z,7.31
2024-03-16T04:14:14.389Z,7.27
2024-03-16T04:16:41.615Z,7.21
2024-03-16T04:19:08.931Z,7.17
2024-03-16T04:21:36.383Z,7.12
2024-03-16T04:24:03.751Z,7.08
2024-03-16T04:26:30.974Z,7.03
2024-03-16T04:28:58.161Z,6.99
2024-03-16T04:31:25.505Z,6.96
2024-03-16T04:33:53.050Z,6.92
2024-03-16T04:36:20.237Z,6.89
2024-03-16T04:38:47.404Z,6.86
2024-03-16T04:41:14.564Z,6.83
2024-03-16T04:43:42.286Z,6.79
2024-03-16T04:46:09.573Z,6.77
2024-03-16T04:48:36.950Z,6.75
2024-03-16T04:51:04.420Z,6.75
2024-03-16T04:53:31.764Z,6.75
2024-03-16T04:55:59.737Z,6.74
2024-03-16T04:58:27.028Z,6.74
2024-03-16T05:00:54.460Z,6.75
2024-03-16T05:03:21.757Z,6.75
2024-03-16T05:05:51.494Z,6.76
2024-03-16T05:08:18.658Z,6.79
2024-03-16T05:10:53.145Z,6.82
2024-03-16T05:13:20.516Z,6.85
2024-03-16T05:15:47.814Z,6.89
2024-03-16T05:18:15.040Z,6.91
2024-03-16T05:20:42.357Z,6.97
2024-03-16T05:23:09.603Z,7.01
2024-03-16T05:25:38.099Z,7.06
2024-03-16T05:28:05.488Z,7.09
2024-03-16T05:30:32.841Z,7.13
2024-03-16T05:33:00.244Z,7.17
2024-03-16T05:35:29.638Z,7.21
2024-03-16T05:37:57.248Z,7.27
2024-03-16T05:40:25.533Z,7.31
2024-03-16T05:42:52.872Z,7.36
2024-03-16T05:45:20.078Z,7.42
2024-03-16T05:47:47.321Z,7.47
2024-03-16T05:50:15.043Z,7.52
2024-03-16T05:52:42.246Z,7.59
2024-03-16T05:55:09.699Z,7.66
2024-03-16T05:57:37.269Z,7.73
2024-03-16T06:00:14.384Z,7.78
2024-03-16T06:02:41.693Z,7.83
2024-03-16T06:05:10.316Z,7.88
2024-03-16T06:07:37.600Z,7.93
2024-03-16T06:10:05.115Z,7.97
2024-03-16T06:12:32.532Z,8.02
2024-03-16T06:14:59.849Z,8.06
2024-03-16T06:17:27.159Z,8.10
2024-03-16T06:19:55.256Z,8.15
2024-03-16T06:22:22.903Z,8.22
2024-03-16T06:24:50.733Z,8.26
2024-03-16T06:27:22.259Z,8.32
2024-03-16T06:29:53.309Z,8.37
2024-03-16T06:32:21.564Z,8.41
2024-03-16T06:34:51.413Z,8.46
2024-03-16T06:37:21.069Z,8.50
2024-03-16T06:39:48.355Z,8.53
2024-03-16T06:42:15.708Z,8.57
2024-03-16T06:44:42.885Z,8.61
2024-03-16T06:47:10.069Z,8.68
2024-03-16T06:49:37.283Z,8.74
2024-03-16T06:52:04.955Z,8.80
2024-03-16T06:54:32.346Z,8.87
2024-03-16T06:56:59.640Z,8.94
2024-03-16T06:59:27.745Z,9.00
2024-03-16T07:01:55.569Z,9.06
2024-03-16T07:04:23.035Z,9.16
2024-03-16T07:06:50.274Z,9.26
2024-03-16T07:09:19.319Z,9.38
2024-03-16T07:11:48.411Z,9.53
2024-03-16T07:14:16.233Z,9.70
2024-03-16T07:16:43.595Z,9.86
2024-03-16T07:19:11.094Z,9.99
2024-03-16T07:21:38.763Z,10.08
2024-03-16T07:24:08.057Z,10.18
2024-03-16T07:26:35.212Z,10.26
2024-03-16T07:29:02.375Z,10.36
2024-03-16T07:31:29.595Z,10.47
2024-03-16T07:33:59.291Z,10.56
2024-03-16T07:36:28.082Z,10.65
2024-03-16T07:38:55.612Z,10.72
2024-03-16T07:41:22.790Z,10.80
2024-03-16T07:43:50.759Z,10.90
2024-03-16T07:46:20.585Z,10.98
2024-03-16T07:48:47.983Z,11.04
2024-03-16T07:51:17.851Z,11.09
2024-03-16T07:53:45.099Z,11.13
2024-03-16T07:56:12.320Z,11.15
2024-03-16T07:58:39.453Z,11.18
2024-03-16T08:01:07.029Z,11.22
2024-03-16T08:03:34.334Z,11.29
2024-03-16T08:06:06.040Z,11.32
2024-03-16T08:08:34.157Z,11.30
2024-03-16T08:11:01.501Z,11.28
2024-03-16T08:13:28.846Z,11.32
2024-03-16T08:15:56.173Z,11.42
2024-03-16T08:18:23.456Z,11.58
2024-03-16T08:20:50.672Z,11.72
2024-03-16T08:23:19.921Z,11.87
2024-03-16T08:25:48.068Z,12.01
2024-03-16T08:28:15.997Z,12.04
2024-03-16T08:30:43.834Z,12.11
2024-03-16T08:33:11.591Z,12.24
2024-03-16T08:35:38.866Z,12.34
2024-03-16T08:38:06.123Z,12.51
2024-03-16T08:40:34.052Z,12.66
2024-03-16T08:43:01.510Z,12.76
2024-03-16T08:45:28.785Z,12.87
2024-03-16T08:47:56.074Z,13.13
2024-03-16T08:50:23.397Z,13.24
2024-03-16T08:52:50.854Z,13.26
2024-03-16T08:55:19.044Z,13.37
2024-03-16T08:57:46.418Z,13.55
2024-03-16T09:00:16.720Z,13.77
2024-03-16T09:02:44.338Z,14.01
2024-03-16T09:05:11.805Z,14.22
2024-03-16T09:07:40.143Z,14.42
2024-03-16T09:10:08.718Z,14.63
2024-03-16T09:12:36.182Z,14.71
2024-03-16T09:15:07.253Z,14.74
2024-03-16T09:17:35.153Z,14.86
2024-03-16T09:20:09.189Z,15.08
2024-03-16T09:22:38.166Z,15.17
2024-03-16T09:25:06.471Z,15.10
2024-03-16T09:27:34.642Z,15.01
2024-03-16T09:30:02.583Z,14.91
2024-03-16T09:32:30.010Z,14.88
2024-03-16T09:34:57.172Z,14.95
2024-03-16T09:37:24.409Z,14.98
2024-03-16T09:39:52.856Z,15.06
2024-03-16T09:42:22.840Z,15.28
2024-03-16T09:44:50.156Z,15.54
2024-03-16T09:47:17.268Z,15.68
2024-03-16T09:49:44.476Z,15.87
2024-03-16T09:52:17.187Z,16.15
2024-03-16T09:54:44.654Z,16.39
2024-03-16T09:57:15.854Z,16.58
2024-03-16T09:59:49.866Z,16.75
2024-03-16T10:02:20.798Z,16.79
2024-03-16T10:04:49.187Z,16.88
2024-03-16T10:07:17.003Z,16.92
2024-03-16T10:10:00.309Z,16.73
2024-03-16T10:12:28.665Z,16.45
2024-03-16T10:15:18.030Z,16.08
2024-03-16T10:17:45.193Z,15.66
2024-03-16T10:20:17.112Z,15.33
2024-03-16T10:22:48.116Z,15.08
2024-03-16T10:25:16.827Z,14.92
2024-03-16T10:27:45.430Z,14.83
2024-03-16T10:30:16.187Z,14.80
2024-03-16T10:32:49.876Z,14.75
2024-03-16T10:35:26.280Z,14.73
2024-03-16T10:37:53.981Z,14.71
2024-03-16T10:40:25.457Z,14.74
2024-03-16T10:42:52.635Z,14.75
2024-03-16T10:45:24.730Z,14.79
2024-03-16T10:47:53.640Z,14.91
2024-03-16T10:50:25.420Z,15.12
2024-03-16T10:52:54.106Z,15.30
2024-03-16T10:55:24.076Z,15.50
2024-03-16T10:57:53.934Z,15.88
2024-03-16T11:00:27.159Z,16.21
2024-03-16T11:03:17.957Z,16.40
2024-03-16T11:05:49.033Z,16.66
2024-03-16T11:08:16.154Z,16.83
2024-03-16T11:10:44.779Z,16.77
2024-03-16T11:13:16.250Z,16.83
2024-03-16T11:15:47.095Z,17.07
2024-03-16T11:18:17.405Z,17.30
2024-03-16T11:20:45.035Z,17.40
2024-03-16T11:23:29.465Z,17.23
2024-03-16T11:26:02.036Z,17.10
2024-03-16T11:28:45.518Z,16.85
2024-03-16T11:31:41.774Z,16.66
2024-03-16T11:34:15.073Z,16.59
2024-03-16T11:36:43.297Z,16.56
2024-03-16T11:39:13.659Z,16.56
2024-03-16T11:41:45.160Z,16.53
2024-03-16T11:44:16.896Z,16.60
2024-03-16T11:46:45.711Z,16.61
2024-03-16T11:49:15.851Z,16.76
2024-03-16T11:51:44.150Z,16.85
2024-03-16T11:54:15.052Z,16.82
2024-03-16T11:56:43.878Z,16.77
2024-03-16T11:59:17.242Z,16.93
2024-03-16T12:01:47.997Z,17.18
2024-03-16T12:04:18.956Z,17.45
2024-03-16T12:06:49.576Z,17.78
2024-03-16T12:09:18.447Z,18.17
2024-03-16T12:11:47.394Z,18.24
2024-03-16T12:14:22.878Z,18.17
2024-03-16T12:16:54.651Z,17.97
2024-03-16T12:19:21.925Z,17.73
2024-03-16T12:21:50.205Z,17.41
2024-03-16T12:24:19.035Z,17.05
2024-03-16T12:26:48.565Z,16.83
2024-03-16T12:29:18.263Z,16.77
2024-03-16T12:31:46.641Z,16.75
2024-03-16T12:34:14.968Z,16.77
2024-03-16T12:36:42.914Z,16.85
2024-03-16T12:39:11.965Z,16.94
2024-03-16T12:41:42.140Z,17.09
2024-03-16T12:44:10.480Z,17.24
2024-03-16T12:46:37.660Z,17.11
2024-03-16T12:49:05.108Z,16.93
2024-03-16T12:51:35.687Z,16.69
2024-03-16T12:54:03.382Z,16.44
2024-03-16T12:56:33.270Z,16.16
2024-03-16T12:59:00.438Z,15.89
2024-03-16T13:01:32.009Z,15.62
2024-03-16T13:04:00.761Z,15.23
2024-03-16T13:06:28.009Z,14.81
2024-03-16T13:08:55.368Z,14.46
2024-03-16T13:11:26.101Z,14.18
2024-03-16T13:13:53.320Z,14.01
2024-03-16T13:16:20.566Z,13.99
2024-03-16T13:18:47.792Z,14.06
2024-03-16T13:21:15.156Z,14.51
2024-03-16T13:23:42.410Z,15.30
2024-03-16T13:26:13.462Z,15.93
2024-03-16T13:28:40.693Z,16.61
2024-03-16T13:31:10.335Z,17.28
2024-03-16T13:33:37.478Z,18.06
2024-03-16T13:36:05.894Z,18.77
2024-03-16T13:38:33.462Z,19.48
2024-03-16T13:41:00.738Z,20.06
2024-03-16T13:43:29.091Z,20.54
2024-03-16T13:45:56.381Z,20.97
2024-03-16T13:48:25.973Z,21.20
2024-03-16T13:50:53.228Z,21.16
2024-03-16T13:53:21.840Z,21.24
2024-03-16T13:55:50.129Z,21.53
2024-03-16T13:58:17.317Z,21.72
2024-03-16T14:00:44.688Z,21.46
2024-03-16T14:03:13.396Z,21.37
2024-03-16T14:05:40.672Z,20.98
2024-03-16T14:08:07.873Z,20.74
2024-03-16T14:10:35.081Z,21.23
2024-03-16T14:13:02.481Z,22.01
2024-03-16T14:15:30.574Z,22.26
2024-03-16T14:17:58.259Z,21.89
2024-03-16T14:20:31.772Z,21.28
2024-03-16T14:22:58.936Z,20.66
2024-03-16T14:25:29.122Z,20.13
2024-03-16T14:27:58.231Z,19.56
2024-03-16T14:30:25.408Z,19.11
2024-03-16T14:32:52.701Z,19.03
2024-03-16T14:35:20.495Z,19.23
2024-03-16T14:37:47.753Z,19.49
2024-03-16T14:40:22.695Z,20.21
2024-03-16T14:42:50.210Z,20.28
2024-03-16T14:45:17.383Z,20.28
2024-03-16T14:47:44.580Z,20.22
2024-03-16T14:50:14.105Z,19.91
2024-03-16T14:52:44.266Z,19.69
2024-03-16T14:55:11.500Z,19.35
2024-03-16T14:57:39.470Z,19.04
2024-03-16T15:00:07.745Z,18.72
2024-03-16T15:02:35.687Z,18.37
2024-03-16T15:05:09.577Z,18.03
2024-03-16T15:07:39.423Z,17.66
2024-03-16T15:10:07.466Z,17.34
2024-03-16T15:12:34.716Z,17.07
2024-03-16T15:15:01.889Z,16.84
2024-03-16T15:17:29.032Z,16.61
2024-03-16T15:19:56.279Z,16.38
2024-03-16T15:22:23.490Z,16.15
2024-03-16T15:24:50.892Z,15.96
2024-03-16T15:27:23.736Z,15.78
2024-03-16T15:29:50.947Z,15.60
2024-03-16T15:32:18.218Z,15.43
2024-03-16T15:34:45.498Z,15.27
2024-03-16T15:37:12.925Z,15.15
2024-03-16T15:39:40.206Z,15.04
2024-03-16T15:42:07.996Z,14.93
2024-03-16T15:44:35.307Z,14.84
2024-03-16T15:47:02.578Z,14.75
2024-03-16T15:49:30.188Z,14.60
2024-03-16T15:52:06.848Z,14.45
2024-03-16T15:54:39.540Z,14.36
2024-03-16T15:57:07.254Z,14.30
2024-03-16T15:59:35.053Z,14.18
2024-03-16T16:02:02.234Z,14.07
2024-03-16T16:04:29.496Z,13.94
2024-03-16T16:06:57.398Z,13.80
2024-03-16T16:09:24.579Z,13.65
2024-03-16T16:11:51.879Z,13.55
2024-03-16T16:14:19.625Z,13.47
2024-03-16T16:16:46.871Z,13.40
2024-03-16T16:19:14.038Z,13.32
2024-03-16T16:21:41.219Z,13.26
2024-03-16T16:24:09.052Z,13.21
2024-03-16T16:26:36.701Z,13.16
2024-03-16T16:29:04.155Z,13.09
2024-03-16T16:31:32.417Z,13.03
2024-03-16T16:34:00.140Z,12.99
2024-03-16T16:36:27.289Z,12.95
2024-03-16T16:38:54.539Z,12.92
2024-03-16T16:41:21.728Z,12.88
2024-03-16T16:43:48.939Z,12.82
2024-03-16T16:46:16.129Z,12.76
2024-03-16T16:48:43.392Z,12.71
2024-03-16T16:51:11.212Z,12.62
2024-03-16T16:53:38.427Z,12.54
2024-03-16T16:56:06.509Z,12.45
2024-03-16T16:58:34.686Z,12.38
2024-03-16T17:01:04.590Z,12.31
2024-03-16T17:03:32.452Z,12.24
2024-03-16T17:06:01.406Z,12.11
2024-03-16T17:08:29.107Z,11.90
2024-03-16T17:10:56.368Z,11.69
2024-03-16T17:13:23.573Z,11.51
2024-03-16T17:15:51.176Z,11.35
2024-03-16T17:18:18.747Z,11.23
2024-03-16T17:20:47.748Z,11.13
2024-03-16T17:23:14.967Z,11.07
2024-03-16T17:25:42.217Z,11.01
2024-03-16T17:28:09.465Z,10.97
2024-03-16T17:30:40.622Z,10.95
2024-03-16T17:33:08.255Z,10.92
2024-03-16T17:35:37.393Z,10.91
2024-03-16T17:38:11.121Z,10.91
2024-03-16T17:40:38.402Z,10.89
2024-03-16T17:43:08.616Z,10.86
2024-03-16T17:45:36.565Z,10.82
2024-03-16T17:48:03.969Z,10.80
2024-03-16T17:50:31.158Z,10.79
2024-03-16T17:52:58.488Z,10.76
2024-03-16T17:55:27.388Z,10.73
2024-03-16T17:57:59.257Z,10.71
2024-03-16T18:00:30.717Z,10.68
2024-03-16T18:02:57.929Z,10.64
2024-03-16T18:05:27.138Z,10.60
2024-03-16T18:07:54.372Z,10.56
2024-03-16T18:10:21.669Z,10.53
2024-03-16T18:12:49.106Z,10.50
2024-03-16T18:15:16.541Z,10.44
2024-03-16T18:17:47.128Z,10.41
2024-03-16T18:20:19.643Z,10.35
2024-03-16T18:22:46.840Z,10.30
2024-03-16T18:25:14.045Z,10.25
2024-03-16T18:27:42.130Z,10.21
2024-03-16T18:30:10.466Z,10.17
2024-03-16T18:32:37.677Z,10.12
2024-03-16T18:35:05.341Z,10.08
2024-03-16T18:37:32.649Z,10.06
2024-03-16T18:40:01.048Z,10.03
2024-03-16T18:42:28.355Z,10.00
2024-03-16T18:44:55.707Z,9.97
2024-03-16T18:47:22.896Z,9.93
2024-03-16T18:49:53.185Z,9.89
2024-03-16T18:52:20.370Z,9.83
2024-03-16T18:54:47.730Z,9.79
2024-03-16T18:57:17.287Z,9.76
2024-03-16T18:59:44.710Z,9.74
2024-03-16T19:02:12.052Z,9.72
2024-03-16T19:04:39.391Z,9.71
2024-03-16T19:07:07.054Z,9.70
2024-03-16T19:09:34.300Z,9.69
2024-03-16T19:12:01.493Z,9.67
2024-03-16T19:14:28.991Z,9.64
2024-03-16T19:16:58.314Z,9.63
2024-03-16T19:19:27.815Z,9.60
2024-03-16T19:21:54.992Z,9.57
2024-03-16T19:24:22.253Z,9.54
2024-03-16T19:26:49.688Z,9.51
2024-03-16T19:29:16.804Z,9.48
2024-03-16T19:31:43.980Z,9.43
2024-03-16T19:34:11.219Z,9.31
2024-03-16T19:36:38.400Z,9.09
2024-03-16T19:39:05.613Z,8.88
2024-03-16T19:41:32.771Z,8.62
2024-03-16T19:44:00.211Z,8.43
2024-03-16T19:46:28.292Z,8.27
2024-03-16T19:48:55.546Z,8.08
2024-03-16T19:51:22.733Z,7.98
2024-03-16T19:53:49.917Z,7.88
2024-03-16T19:56:17.232Z,7.81
2024-03-16T19:58:44.509Z,7.72
2024-03-16T20:01:11.742Z,7.66
2024-03-16T20:03:42.562Z,7.58
2024-03-16T20:06:13.893Z,7.49
2024-03-16T20:08:41.108Z,7.41
2024-03-16T20:11:08.875Z,7.36
2024-03-16T20:13:36.027Z,7.33
2024-03-16T20:16:04.236Z,7.30
2024-03-16T20:18:31.481Z,7.27
2024-03-16T20:21:03.012Z,7.23
2024-03-16T20:23:30.224Z,7.19
2024-03-16T20:25:57.391Z,7.17
2024-03-16T20:28:24.772Z,7.15
2024-03-16T20:30:51.912Z,7.13
2024-03-16T20:33:19.092Z,7.12
2024-03-16T20:35:47.004Z,7.11
2024-03-16T20:38:14.143Z,7.09
2024-03-16T20:40:41.503Z,7.06
2024-03-16T20:43:10.456Z,7.06
2024-03-16T20:45:37.647Z,7.07
2024-03-16T20:48:05.031Z,7.09
2024-03-16T20:50:32.210Z,7.08
2024-03-16T20:52:59.536Z,7.06
2024-03-16T20:55:27.705Z,7.05
2024-03-16T20:57:56.090Z,7.02
2024-03-16T21:00:24.952Z,6.99
2024-03-16T21:02:52.317Z,6.97
2024-03-16T21:05:19.506Z,6.95
2024-03-16T21:07:46.681Z,6.93
2024-03-16T21:10:15.914Z,6.91
2024-03-16T21:12:43.143Z,6.89
2024-03-16T21:15:10.637Z,6.85
2024-03-16T21:17:37.881Z,6.79
2024-03-16T21:20:05.859Z,6.71
2024-03-16T21:22:36.956Z,6.63
2024-03-16T21:25:04.614Z,6.56
2024-03-16T21:27:31.803Z,6.51
2024-03-16T21:29:58.969Z,6.43
2024-03-16T21:32:26.217Z,6.36
2024-03-16T21:34:56.778Z,6.27
2024-03-16T21:37:24.229Z,6.18
2024-03-16T21:39:51.376Z,6.10
2024-03-16T21:42:20.302Z,6.04
2024-03-16T21:44:47.566Z,5.96
2024-03-16T21:47:14.708Z,5.89
2024-03-16T21:49:44.627Z,5.82
2024-03-16T21:52:11.859Z,5.77
2024-03-16T21:54:40.468Z,5.72
2024-03-16T21:57:07.663Z,5.68
2024-03-16T21:59:34.993Z,5.63
2024-03-16T22:02:02.461Z,5.57
2024-03-16T22:04:30.425Z,5.54
2024-03-16T22:06:58.802Z,5.50
2024-03-16T22:09:26.106Z,5.46
2024-03-16T22:11:54.125Z,5.41
2024-03-16T22:14:21.350Z,5.36
2024-03-16T22:16:48.489Z,5.31
2024-03-16T22:19:15.639Z,5.25
2024-03-16T22:21:42.837Z,5.19
2024-03-16T22:24:09.998Z,5.14
2024-03-16T22:26:37.162Z,5.09
2024-03-16T22:29:04.360Z,5.04
2024-03-16T22:31:31.599Z,4.99
2024-03-16T22:33:59.164Z,4.95
2024-03-16T22:36:28.981Z,4.90
2024-03-16T22:38:56.104Z,4.85
2024-03-16T22:41:23.207Z,4.81
2024-03-16T22:43:50.604Z,4.78
2024-03-16T22:46:17.752Z,4.75
2024-03-16T22:48:44.941Z,4.72
2024-03-16T22:51:12.145Z,4.70
2024-03-16T22:53:39.306Z,4.66
2024-03-16T22:56:06.725Z,4.62
2024-03-16T22:58:34.000Z,4.58
2024-03-16T23:01:04.641Z,4.53
2024-03-16T23:03:32.383Z,4.49
2024-03-16T23:06:02.141Z,4.46
2024-03-16T23:08:30.974Z,4.43
2024-03-16T23:10:58.166Z,4.40
2024-03-16T23:13:27.143Z,4.37
2024-03-16T23:15:57.329Z,4.33
2024-03-16T23:18:24.440Z,4.31
2024-03-16T23:20:54.871Z,4.28
2024-03-16T23:23:22.001Z,4.25
2024-03-16T23:25:49.554Z,4.22
2024-03-16T23:28:17.117Z,4.20
2024-03-16T23:30:44.832Z,4.17
2024-03-16T23:33:13.012Z,4.15
2024-03-16T23:35:40.194Z,4.12
2024-03-16T23:38:07.420Z,4.08
2024-03-16T23:40:34.705Z,4.04
2024-03-16T23:43:02.022Z,4.00
2024-03-16T23:45:29.277Z,3.96
2024-03-16T23:47:56.467Z,3.93
2024-03-16T23:50:23.741Z,3.90
2024-03-16T23:52:50.906Z,3.87
2024-03-16T23:55:18.783Z,3.84
2024-03-16T23:57:45.918Z,3.83
